Time;durP1;ratioP1;P1;durP2;ratioP2;P2;SDS_P1;SDS_P2;PMS_P1;PMS_P2;Temp;Humidity;BMP_temperature;BMP_pressure;BME280_temperature;BME280_humidity;BME280_pressure;Samples;Min_cycle;Max_cycle;Signal;HPM_P1;HPM_P2
2023/12/21 00:00:41;;;;;;;5.13;4.30;;;;;;;5.74;91.39;97679.88;5046699;28;20026;-73
2023/12/21 00:03:06;;;;;;;4.38;3.58;;;;;;;5.58;91.82;97640.44;5043311;28;20493;-73
2023/12/21 00:05:32;;;;;;;4.40;4.05;;;;;;;5.76;92.14;97668.97;5041454;28;20021;-73
2023/12/21 00:07:57;;;;;;;4.30;3.42;;;;;;;5.75;91.25;97672.69;5024125;28;20049;-73
2023/12/21 00:10:22;;;;;;;5.53;3.72;;;;;;;5.79;91.22;97674.69;5018497;28;20033;-74
2023/12/21 00:12:48;;;;;;;4.72;3.80;;;;;;;5.75;91.69;97659.31;5035314;28;20045;-72
2023/12/21 00:15:13;;;;;;;6.05;3.78;;;;;;;5.77;91.77;97665.25;5033522;28;20096;-73
2023/12/21 00:17:39;;;;;;;5.85;3.38;;;;;;;5.62;92.39;97640.81;5035547;28;20144;-73
2023/12/21 00:20:05;;;;;;;3.95;3.38;;;;;;;5.77;91.66;97659.91;5031450;28;20025;-72
2023/12/21 00:22:30;;;;;;;3.50;3.20;;;;;;;5.79;91.12;97663.19;5024853;28;20036;-73
2023/12/21 00:24:55;;;;;;;4.68;3.22;;;;;;;5.75;91.69;97637.94;5038011;28;20025;-73
2023/12/21 00:27:21;;;;;;;3.22;2.92;;;;;;;5.86;91.71;97647.91;5040639;28;20481;-72
2023/12/21 00:29:47;;;;;;;3.97;3.50;;;;;;;5.81;91.94;97655.75;5028242;28;20104;-72
2023/12/21 00:32:12;;;;;;;3.97;3.17;;;;;;;5.84;91.45;97639.25;5039037;28;20064;-71
2023/12/21 00:34:38;;;;;;;3.60;3.30;;;;;;;5.77;90.92;97634.00;5028437;28;20033;-72
2023/12/21 00:37:03;;;;;;;3.53;2.90;;;;;;;5.69;91.52;97620.19;5050208;28;20396;-72
2023/12/21 00:39:28;;;;;;;3.42;2.90;;;;;;;5.80;91.06;97632.75;5019461;28;20029;-72
2023/12/21 00:41:54;;;;;;;2.63;2.42;;;;;;;5.66;91.52;97613.44;5026892;28;20087;-73
2023/12/21 00:44:19;;;;;;;3.58;3.00;;;;;;;5.79;91.67;97628.47;5032738;28;20100;-76
2023/12/21 00:46:44;;;;;;;3.47;2.85;;;;;;;5.82;91.02;97611.97;5002715;28;20046;-72
2023/12/21 00:49:10;;;;;;;3.10;2.40;;;;;;;5.86;91.64;97626.53;5028676;28;20025;-72
2023/12/21 00:51:35;;;;;;;3.85;2.53;;;;;;;5.81;91.07;97602.34;5024624;28;20038;-73
2023/12/21 00:54:01;;;;;;;3.10;2.60;;;;;;;5.85;90.59;97608.88;5041764;28;20159;-73
2023/12/21 00:56:26;;;;;;;5.97;3.10;;;;;;;5.91;90.58;97607.94;5028360;28;20502;-73
2023/12/21 00:58:51;;;;;;;2.80;2.60;;;;;;;5.90;91.41;97595.66;5046527;28;20024;-72
2023/12/21 01:01:17;;;;;;;3.78;2.78;;;;;;;5.82;90.84;97574.56;5022635;28;20566;-74
2023/12/21 01:03:42;;;;;;;2.67;2.40;;;;;;;5.90;91.38;97579.59;5043566;28;20481;-73
2023/12/21 01:06:08;;;;;;;2.88;2.55;;;;;;;5.80;90.35;97563.28;5032554;28;20060;-73
2023/12/21 01:08:33;;;;;;;5.35;2.92;;;;;;;5.78;91.07;97554.69;5019200;28;20033;-73
2023/12/21 01:11:00;;;;;;;3.17;2.78;;;;;;;5.78;90.39;97554.69;5012482;28;20124;-75
2023/12/21 01:13:25;;;;;;;2.70;2.50;;;;;;;5.91;91.43;97574.03;5017956;28;20032;-73
2023/12/21 01:15:50;;;;;;;3.50;2.58;;;;;;;5.89;90.83;97564.59;5026155;28;20037;-75
2023/12/21 01:18:16;;;;;;;2.80;2.60;;;;;;;5.82;90.74;97539.81;5039403;28;20472;-73
2023/12/21 01:20:41;;;;;;;3.25;2.75;;;;;;;5.90;90.34;97552.88;5038012;28;20041;-73
2023/12/21 01:23:06;;;;;;;2.80;2.60;;;;;;;5.90;90.93;97569.75;5017809;28;20108;-73
2023/12/21 01:25:32;;;;;;;2.67;2.47;;;;;;;5.91;90.26;97575.88;5016886;28;20087;-73
2023/12/21 01:27:57;;;;;;;2.63;2.42;;;;;;;5.94;91.21;97578.09;5015162;28;20025;-73
2023/12/21 01:30:23;;;;;;;4.28;2.50;;;;;;;5.94;90.22;97570.09;5015976;28;20577;-73
2023/12/21 01:32:49;;;;;;;3.05;2.40;;;;;;;5.92;89.90;97564.16;5028039;28;20046;-74
2023/12/21 01:35:14;;;;;;;3.50;2.40;;;;;;;5.93;90.58;97555.06;5031938;28;20397;-74
2023/12/21 01:37:39;;;;;;;2.60;2.30;;;;;;;6.00;89.60;97569.16;5029374;28;20385;-73
2023/12/21 01:40:05;;;;;;;2.90;2.60;;;;;;;6.01;90.02;97549.41;5031796;28;20041;-73
2023/12/21 01:42:31;;;;;;;3.13;2.17;;;;;;;6.01;90.13;97554.75;5032357;28;20108;-73
2023/12/21 01:44:56;;;;;;;2.47;2.22;;;;;;;5.96;89.52;97530.56;5008139;28;20450;-72
2023/12/21 01:47:22;;;;;;;3.03;2.20;;;;;;;5.97;89.47;97537.56;5038812;28;20017;-74
2023/12/21 01:49:47;;;;;;;2.10;1.80;;;;;;;5.97;90.10;97541.06;5044321;28;20045;-74
2023/12/21 01:52:13;;;;;;;3.22;2.33;;;;;;;5.84;89.64;97521.69;5026925;28;20029;-73
2023/12/21 01:54:38;;;;;;;1.98;1.88;;;;;;;6.00;89.64;97553.13;5036493;28;20048;-74
2023/12/21 01:57:04;;;;;;;1.90;1.70;;;;;;;6.08;89.23;97552.78;5020279;28;20504;-74
2023/12/21 01:59:29;;;;;;;1.85;1.75;;;;;;;5.94;89.94;97548.69;5017706;28;20033;-74
2023/12/21 02:01:55;;;;;;;2.08;1.90;;;;;;;5.88;88.92;97514.91;5033087;28;20087;-74
2023/12/21 02:04:21;;;;;;;2.67;1.98;;;;;;;6.08;89.50;97532.22;5007079;28;20043;-72
2023/12/21 02:06:46;;;;;;;2.22;2.03;;;;;;;6.09;88.87;97525.03;4992420;28;20104;-72
2023/12/21 02:09:13;;;;;;;3.22;2.00;;;;;;;6.10;89.04;97529.31;5022906;28;20046;-73
2023/12/21 02:11:38;;;;;;;2.75;2.30;;;;;;;6.12;90.30;97536.06;5014073;28;20097;-72
2023/12/21 02:14:03;;;;;;;2.15;1.98;;;;;;;6.18;89.70;97523.63;5044751;28;20072;-73
2023/12/21 02:16:40;;;;;;;2.20;2.00;;;;;;;6.09;88.74;97519.69;5028075;28;20389;-74
2023/12/21 02:19:06;;;;;;;4.20;2.05;;;;;;;6.16;89.26;97525.72;4994329;28;20034;-74
2023/12/21 02:21:32;;;;;;;3.90;2.33;;;;;;;6.11;88.79;97506.88;5025410;28;20029;-74
2023/12/21 02:23:58;;;;;;;2.65;2.08;;;;;;;5.96;89.57;97487.81;5030666;28;20043;-74
2023/12/21 02:26:24;;;;;;;2.97;2.00;;;;;;;6.22;89.27;97514.09;5003108;28;20025;-74
2023/12/21 02:28:50;;;;;;;1.80;1.70;;;;;;;6.17;89.23;97487.22;5014037;28;20034;-74
2023/12/21 02:31:15;;;;;;;1.65;1.55;;;;;;;6.08;88.80;97465.41;5019882;28;20029;-74
2023/12/21 02:33:41;;;;;;;1.70;1.50;;;;;;;6.18;89.25;97454.13;5038537;28;20044;-74
2023/12/21 02:36:07;;;;;;;1.70;1.60;;;;;;;6.07;88.99;97453.06;5013358;28;20103;-74
2023/12/21 02:38:33;;;;;;;1.67;1.50;;;;;;;6.12;87.87;97439.00;5033355;28;20029;-74
2023/12/21 02:40:59;;;;;;;1.88;1.30;;;;;;;6.21;88.77;97454.44;5010742;28;20035;-74
2023/12/21 02:43:24;;;;;;;1.88;1.40;;;;;;;6.24;88.16;97437.94;5032074;28;20044;-74
2023/12/21 02:45:50;;;;;;;1.63;1.52;;;;;;;6.27;88.43;97423.31;5019262;28;20030;-74
2023/12/21 02:48:15;;;;;;;1.70;1.60;;;;;;;6.24;87.79;97421.09;5004250;28;20029;-74
2023/12/21 02:50:41;;;;;;;1.50;1.40;;;;;;;6.15;88.13;97393.09;5023578;28;20064;-73
2023/12/21 02:53:06;;;;;;;1.67;1.58;;;;;;;6.22;88.15;97404.47;5017665;28;20033;-74
2023/12/21 02:55:31;;;;;;;1.33;1.23;;;;;;;6.30;87.61;97398.78;5037123;28;20029;-73
2023/12/21 02:57:57;;;;;;;1.55;1.40;;;;;;;6.19;87.31;97405.75;5004909;28;20029;-74
2023/12/21 03:00:22;;;;;;;1.70;1.60;;;;;;;6.29;87.87;97407.81;5032992;28;20638;-74
2023/12/21 03:02:48;;;;;;;1.42;1.33;;;;;;;6.30;87.35;97405.97;5016268;28;20032;-74
2023/12/21 03:05:13;;;;;;;1.55;1.30;;;;;;;6.34;87.49;97405.25;5026206;28;20107;-74
2023/12/21 03:07:38;;;;;;;1.80;1.27;;;;;;;6.30;87.46;97388.06;5027633;28;20045;-73
2023/12/21 03:10:05;;;;;;;1.33;1.20;;;;;;;6.38;87.27;97385.00;5019958;28;20147;-74
2023/12/21 03:12:30;;;;;;;1.33;1.20;;;;;;;6.28;88.40;97368.75;5035249;28;20037;-73
2023/12/21 03:14:56;;;;;;;1.60;1.50;;;;;;;6.33;87.31;97371.53;5047248;28;20362;-73
2023/12/21 03:17:21;;;;;;;1.45;1.35;;;;;;;6.31;88.68;97356.78;5034673;28;20112;-74
2023/12/21 03:19:46;;;;;;;1.42;1.33;;;;;;;6.32;88.27;97353.88;5036507;28;20017;-73
2023/12/21 03:22:12;;;;;;;1.40;1.30;;;;;;;6.29;88.29;97349.00;5049015;28;20056;-74
2023/12/21 03:24:37;;;;;;;1.20;1.17;;;;;;;6.28;88.95;97352.72;5033723;28;20021;-74
2023/12/21 03:27:03;;;;;;;1.63;1.52;;;;;;;6.23;88.78;97336.59;5040069;28;20385;-74
2023/12/21 03:29:28;;;;;;;1.35;1.25;;;;;;;6.35;88.52;97342.69;5024328;28;20410;-73
2023/12/21 03:31:56;;;;;;;1.42;1.33;;;;;;;6.33;90.00;97342.13;5010219;28;20047;-74
2023/12/21 03:34:22;;;;;;;1.50;1.40;;;;;;;6.24;89.21;97324.84;5007407;28;20032;-73
2023/12/21 03:36:47;;;;;;;1.60;1.50;;;;;;;6.28;90.47;97334.81;5016875;28;20034;-73
2023/12/21 03:39:13;;;;;;;1.50;1.40;;;;;;;6.18;90.20;97310.56;5025106;28;20017;-74
2023/12/21 03:41:38;;;;;;;1.60;1.40;;;;;;;6.15;91.15;97304.88;5028337;28;20037;-74
2023/12/21 03:44:03;;;;;;;1.48;1.38;;;;;;;6.11;91.18;97309.09;5035238;28;20025;-74
2023/12/21 03:46:29;;;;;;;1.60;1.50;;;;;;;6.21;90.91;97314.63;5025128;28;20132;-74
2023/12/21 03:48:54;;;;;;;1.60;1.50;;;;;;;6.16;92.13;97322.56;5025085;28;20033;-74
2023/12/21 03:51:19;;;;;;;1.85;1.70;;;;;;;6.22;92.23;97333.13;5043267;28;20048;-74
2023/12/21 03:53:45;;;;;;;1.70;1.60;;;;;;;6.25;91.46;97318.47;5040046;28;20195;-74
2023/12/21 03:56:10;;;;;;;1.75;1.65;;;;;;;6.30;91.97;97323.09;5024494;28;20033;-73
2023/12/21 03:58:37;;;;;;;1.77;1.67;;;;;;;6.31;91.04;97292.63;5016720;28;20478;-74
2023/12/21 04:01:03;;;;;;;1.80;1.70;;;;;;;6.21;91.67;97303.94;5027458;28;20389;-73
2023/12/21 04:03:29;;;;;;;1.67;1.58;;;;;;;6.22;91.54;97294.88;5014399;28;20025;-74
2023/12/21 04:05:54;;;;;;;1.40;1.30;;;;;;;6.37;90.88;97319.19;5043115;28;20499;-74
2023/12/21 04:08:21;;;;;;;1.50;1.40;;;;;;;6.37;91.08;97300.47;5019515;28;20087;-74
2023/12/21 04:10:47;;;;;;;1.50;1.40;;;;;;;6.36;90.26;97298.88;5027938;28;20053;-74
2023/12/21 04:13:12;;;;;;;1.70;1.30;;;;;;;6.28;90.36;97275.19;5005249;28;20033;-74
2023/12/21 04:15:37;;;;;;;1.73;1.63;;;;;;;6.37;90.72;97270.28;5028835;28;20515;-74
2023/12/21 04:18:03;;;;;;;1.40;1.40;;;;;;;6.40;90.18;97286.66;5040232;28;20060;-74
2023/12/21 04:20:28;;;;;;;1.50;1.40;;;;;;;6.33;90.62;97259.25;5035473;28;20072;-74
2023/12/21 04:22:53;;;;;;;1.77;1.67;;;;;;;6.40;90.75;97253.72;5010807;28;20041;-74
2023/12/21 04:25:19;;;;;;;1.60;1.50;;;;;;;6.42;90.18;97249.78;5033340;28;20037;-73
2023/12/21 04:27:44;;;;;;;1.60;1.50;;;;;;;6.53;89.93;97259.63;5033929;28;20021;-73
2023/12/21 04:30:10;;;;;;;1.60;1.50;;;;;;;6.49;90.38;97253.09;5024791;28;20040;-74
2023/12/21 04:32:36;;;;;;;1.90;1.80;;;;;;;6.50;90.27;97260.09;5033672;28;20113;-74
2023/12/21 04:35:01;;;;;;;1.58;1.48;;;;;;;6.42;90.01;97263.16;5015894;28;20485;-73
2023/12/21 04:37:26;;;;;;;2.20;2.00;;;;;;;6.58;89.67;97262.34;5045456;28;20068;-73
2023/12/21 04:39:52;;;;;;;1.60;1.50;;;;;;;6.61;89.49;97277.94;5026187;28;20033;-73
2023/12/21 04:42:17;;;;;;;1.70;1.60;;;;;;;6.70;89.22;97239.00;5029546;28;20025;-73
2023/12/21 04:44:42;;;;;;;1.23;1.23;;;;;;;6.66;88.62;97224.50;5036285;28;20033;-73
2023/12/21 04:47:09;;;;;;;1.70;1.60;;;;;;;6.68;89.46;97227.75;5020559;28;20481;-73
2023/12/21 04:49:35;;;;;;;1.40;1.30;;;;;;;6.60;90.10;97217.47;5028100;28;20085;-73
2023/12/21 04:52:00;;;;;;;1.35;1.30;;;;;;;6.70;89.22;97233.66;5009483;28;20029;-73
2023/12/21 04:54:25;;;;;;;1.48;1.38;;;;;;;6.67;89.87;97223.47;5015800;28;20116;-73
2023/12/21 04:56:51;;;;;;;1.30;1.20;;;;;;;6.60;89.84;97220.16;4981272;28;1055369;-73
2023/12/21 04:59:16;;;;;;;1.50;1.42;;;;;;;6.65;89.08;97208.72;5038730;28;20029;-73
2023/12/21 05:01:42;;;;;;;1.80;1.70;;;;;;;6.67;89.16;97207.44;5033745;28;20382;-73
2023/12/21 05:04:07;;;;;;;1.40;1.30;;;;;;;6.49;89.50;97162.19;5017922;28;20045;-73
2023/12/21 05:06:33;;;;;;;1.60;1.50;;;;;;;6.69;89.82;97191.94;5032488;28;20053;-73
2023/12/21 05:09:01;;;;;;;1.50;1.40;;;;;;;6.71;89.59;97175.63;5046289;28;20568;-73
2023/12/21 05:11:27;;;;;;;1.38;1.27;;;;;;;6.69;89.28;97205.31;5048567;28;20089;-73
2023/12/21 05:13:53;;;;;;;3.13;1.30;;;;;;;6.61;89.82;97189.66;5026314;28;20048;-73
2023/12/21 05:16:18;;;;;;;1.50;1.40;;;;;;;6.69;90.16;97199.97;5047829;28;20037;-73
2023/12/21 05:18:43;;;;;;;1.48;1.40;;;;;;;6.70;89.87;97206.91;5036143;28;20400;-73
2023/12/21 05:21:09;;;;;;;2.35;1.52;;;;;;;6.69;90.25;97194.59;5020579;28;20033;-73
2023/12/21 05:23:34;;;;;;;1.58;1.40;;;;;;;6.75;90.61;97187.44;5042186;28;20051;-73
2023/12/21 05:26:00;;;;;;;1.33;1.23;;;;;;;6.82;89.83;97194.25;5020251;28;20108;-73
2023/12/21 05:28:26;;;;;;;1.60;1.50;;;;;;;6.61;90.10;97181.63;5044246;28;20033;-73
2023/12/21 05:30:51;;;;;;;5.47;5.07;;;;;;;6.83;90.46;97173.66;5026454;28;20064;-73
2023/12/21 05:33:17;;;;;;;9.65;8.85;;;;;;;6.80;89.98;97174.97;5015848;28;20061;-73
2023/12/21 05:35:42;;;;;;;39.70;34.40;;;;;;;6.89;89.88;97168.16;5020322;28;20029;-73
2023/12/21 05:38:08;;;;;;;12.52;11.25;;;;;;;6.89;89.64;97188.72;5018310;28;20032;-74
2023/12/21 05:40:33;;;;;;;16.60;15.20;;;;;;;6.82;89.32;97162.16;5049199;28;20037;-73
2023/12/21 05:42:58;;;;;;;2.83;2.67;;;;;;;6.90;89.23;97183.16;5024131;28;20034;-74
2023/12/21 05:45:24;;;;;;;1.73;1.63;;;;;;;6.82;89.03;97156.81;4997985;28;20408;-75
2023/12/21 05:47:49;;;;;;;2.00;1.90;;;;;;;7.01;89.81;97164.53;5022845;28;20037;-75
2023/12/21 05:50:15;;;;;;;1.70;1.60;;;;;;;6.84;89.59;97148.50;5017896;28;20105;-74
2023/12/21 05:52:40;;;;;;;1.65;1.50;;;;;;;6.95;88.79;97151.09;5004953;28;20048;-74
2023/12/21 05:55:06;;;;;;;1.55;1.45;;;;;;;6.92;89.12;97156.94;5028902;28;20021;-74
2023/12/21 05:57:31;;;;;;;2.15;2.03;;;;;;;7.03;89.10;97151.72;5022566;28;20051;-73
2023/12/21 05:59:57;;;;;;;1.45;1.40;;;;;;;7.00;89.30;97154.91;5043573;28;20041;-73
2023/12/21 06:02:22;;;;;;;1.80;1.70;;;;;;;6.98;89.08;97133.72;5020938;28;20477;-74
2023/12/21 06:04:48;;;;;;;1.58;1.48;;;;;;;6.93;89.22;97106.91;5016029;28;20160;-74
2023/12/21 06:07:13;;;;;;;1.90;1.75;;;;;;;7.03;88.91;97111.56;5034539;28;20488;-73
2023/12/21 06:09:38;;;;;;;1.77;1.67;;;;;;;7.04;89.02;97091.78;5032247;28;20374;-73
2023/12/21 06:12:04;;;;;;;1.23;1.23;;;;;;;7.03;88.59;97092.84;5018321;28;20091;-74
2023/12/21 06:14:30;;;;;;;1.60;1.50;;;;;;;7.00;88.55;97090.69;5014470;28;20029;-73
2023/12/21 06:16:55;;;;;;;1.30;1.20;;;;;;;6.97;88.83;97084.75;5014600;28;20361;-74
2023/12/21 06:19:20;;;;;;;1.50;1.40;;;;;;;7.03;88.42;97076.78;5027007;28;20027;-73
2023/12/21 06:21:46;;;;;;;1.30;1.27;;;;;;;6.97;88.89;97063.34;4998056;28;20092;-73
2023/12/21 06:24:11;;;;;;;1.50;1.40;;;;;;;6.98;88.50;97062.28;5014885;28;20025;-73
2023/12/21 06:26:40;;;;;;;2.90;1.27;;;;;;;7.02;89.16;97069.81;5005458;28;20091;-73
2023/12/21 06:29:06;;;;;;;1.95;1.60;;;;;;;7.15;88.83;97088.16;5022520;28;20459;-73
2023/12/21 06:31:31;;;;;;;1.45;1.35;;;;;;;7.17;89.01;97089.53;5016483;28;20033;-73
2023/12/21 06:33:57;;;;;;;1.70;1.60;;;;;;;7.14;89.20;97079.31;5034404;28;20041;-73
2023/12/21 06:36:23;;;;;;;1.05;1.05;;;;;;;7.04;88.85;97068.50;5038238;28;20033;-73
2023/12/21 06:38:48;;;;;;;1.17;1.17;;;;;;;7.21;88.47;97076.47;5043050;28;20551;-74
2023/12/21 06:41:14;;;;;;;1.15;1.08;;;;;;;7.12;88.45;97069.94;5018663;28;20025;-73
2023/12/21 06:43:39;;;;;;;1.52;1.42;;;;;;;7.22;88.72;97076.22;5031916;28;20119;-73
2023/12/21 06:46:11;;;;;;;1.23;1.17;;;;;;;7.20;88.16;97061.47;4987358;28;20096;-72
2023/12/21 06:48:37;;;;;;;1.20;1.10;;;;;;;7.24;88.05;97067.91;5032856;28;20478;-73
2023/12/21 06:51:02;;;;;;;1.17;1.10;;;;;;;7.33;87.61;97058.38;5008064;28;20017;-74
2023/12/21 06:53:27;;;;;;;1.20;1.20;;;;;;;7.25;87.47;97050.81;5030054;28;20132;-74
2023/12/21 06:55:53;;;;;;;1.30;1.30;;;;;;;7.15;88.38;97031.94;5037221;28;20017;-74
2023/12/21 06:58:18;;;;;;;1.33;1.25;;;;;;;7.35;87.42;97058.97;5025170;28;20408;-74
2023/12/21 07:00:43;;;;;;;1.20;1.20;;;;;;;7.34;88.49;97051.97;5000340;28;20083;-76
2023/12/21 07:03:09;;;;;;;1.00;1.00;;;;;;;7.38;87.82;97059.25;5042993;28;20033;-74
2023/12/21 07:05:34;;;;;;;1.30;1.30;;;;;;;7.44;88.05;97068.16;5033450;28;20021;-74
2023/12/21 07:08:00;;;;;;;1.20;1.20;;;;;;;7.34;87.62;97035.91;5031058;28;20041;-74
2023/12/21 07:10:25;;;;;;;2.90;2.47;;;;;;;7.33;87.38;97034.28;5025719;28;20118;-74
2023/12/21 07:12:50;;;;;;;5.40;3.28;;;;;;;7.25;87.97;97032.06;5031725;28;20512;-74
2023/12/21 07:15:16;;;;;;;2.20;1.95;;;;;;;7.39;88.06;97044.81;5013392;28;20056;-74
2023/12/21 07:17:42;;;;;;;55.47;33.67;;;;;;;7.36;88.21;97028.44;5031528;28;20065;-74
2023/12/21 07:20:08;;;;;;;9.02;6.22;;;;;;;7.41;87.72;97036.53;5025568;28;20060;-74
2023/12/21 07:22:33;;;;;;;6.88;5.18;;;;;;;7.40;88.76;97046.41;5037966;28;20049;-75
2023/12/21 07:24:58;;;;;;;2.75;2.30;;;;;;;7.43;88.22;97058.50;5033536;28;20030;-74
2023/12/21 07:27:24;;;;;;;3.05;1.70;;;;;;;7.31;88.34;97042.56;5017551;28;20116;-74
2023/12/21 07:29:50;;;;;;;1.30;1.20;;;;;;;7.39;89.06;97050.19;5037538;28;20025;-74
2023/12/21 07:32:16;;;;;;;1.50;1.40;;;;;;;7.44;87.96;97030.66;5028952;28;20095;-74
2023/12/21 07:34:41;;;;;;;1.60;1.50;;;;;;;7.41;88.96;97031.16;5030774;28;20104;-74
2023/12/21 07:37:08;;;;;;;1.48;1.38;;;;;;;7.33;88.97;97028.91;5029544;28;20064;-74
2023/12/21 07:39:33;;;;;;;1.40;1.35;;;;;;;7.39;88.62;97026.06;5013263;28;20083;-73
2023/12/21 07:41:59;;;;;;;1.30;1.20;;;;;;;7.35;88.67;97026.84;5009703;28;20034;-74
2023/12/21 07:44:24;;;;;;;3.08;1.42;;;;;;;7.50;87.95;97030.47;5036331;28;20446;-73
2023/12/21 07:46:49;;;;;;;1.00;1.00;;;;;;;7.43;88.08;97010.28;5011733;28;20021;-74
2023/12/21 07:49:15;;;;;;;1.58;1.48;;;;;;;7.54;88.03;97014.66;5009664;28;20194;-73
2023/12/21 07:51:40;;;;;;;1.48;1.33;;;;;;;7.40;87.83;97002.75;5031568;28;20060;-73
2023/12/21 07:54:06;;;;;;;1.58;1.30;;;;;;;7.43;87.87;96991.53;5023202;28;20099;-73
2023/12/21 07:56:31;;;;;;;2.47;2.08;;;;;;;7.54;88.09;96994.06;5041827;28;20045;-73
2023/12/21 07:58:56;;;;;;;1.40;1.30;;;;;;;7.50;88.72;96986.78;5019933;28;20022;-73
2023/12/21 08:01:22;;;;;;;2.00;1.90;;;;;;;7.44;88.96;96987.81;5039736;28;20045;-73
2023/12/21 08:03:47;;;;;;;2.42;2.22;;;;;;;7.51;88.95;96983.06;5024577;28;20044;-73
2023/12/21 08:06:20;;;;;;;1.48;1.38;;;;;;;7.41;89.45;96959.66;5040308;28;20125;-73
2023/12/21 08:08:46;;;;;;;1.80;1.70;;;;;;;7.40;90.05;96959.91;5019930;28;20112;-73
2023/12/21 08:11:11;;;;;;;2.75;2.55;;;;;;;7.44;89.82;96950.31;5032510;28;20100;-73
2023/12/21 08:13:37;;;;;;;2.03;1.92;;;;;;;7.36;89.80;96945.41;5018723;28;20056;-73
2023/12/21 08:16:03;;;;;;;1.50;1.40;;;;;;;7.49;90.58;96953.03;4991295;28;20045;-74
2023/12/21 08:18:28;;;;;;;2.10;2.00;;;;;;;7.44;89.89;96920.84;5029531;28;20045;-73
2023/12/21 08:20:54;;;;;;;2.17;2.03;;;;;;;7.55;89.50;96925.22;5024769;28;20029;-72
2023/12/21 08:23:19;;;;;;;1.42;1.23;;;;;;;7.43;89.96;96912.00;5034114;28;20036;-73
2023/12/21 08:25:45;;;;;;;1.65;1.55;;;;;;;7.45;89.07;96887.63;5014319;28;20500;-73
2023/12/21 08:28:10;;;;;;;1.20;1.20;;;;;;;7.41;90.19;96895.38;5028977;28;20033;-73
2023/12/21 08:30:36;;;;;;;1.30;1.20;;;;;;;7.40;89.56;96884.91;5014209;28;20021;-73
2023/12/21 08:33:02;;;;;;;1.10;1.10;;;;;;;7.54;89.86;96891.44;5030655;28;20033;-73
2023/12/21 08:35:27;;;;;;;1.27;1.27;;;;;;;7.57;90.43;96890.94;5033583;28;20049;-73
2023/12/21 08:37:56;;;;;;;1.35;1.30;;;;;;;7.56;90.42;96884.00;5021327;28;20036;-72
2023/12/21 08:40:21;;;;;;;1.50;1.40;;;;;;;7.53;89.88;96860.38;5020066;28;20032;-73
2023/12/21 08:42:47;;;;;;;1.50;1.40;;;;;;;7.51;89.92;96870.56;5043629;28;20668;-73
2023/12/21 08:45:12;;;;;;;1.40;1.30;;;;;;;7.43;89.95;96831.66;5039745;28;20021;-72
2023/12/21 08:47:40;;;;;;;1.35;1.33;;;;;;;7.52;90.05;96853.41;5017719;28;20037;-72
2023/12/21 08:50:10;;;;;;;1.35;1.25;;;;;;;7.54;90.81;96836.00;5019730;28;20080;-75
2023/12/21 08:52:39;;;;;;;1.65;1.42;;;;;;;7.58;90.06;96844.34;5032935;28;20061;-73
2023/12/21 08:55:04;;;;;;;1.60;1.50;;;;;;;7.60;90.24;96829.63;5039901;28;20025;-73
2023/12/21 08:57:32;;;;;;;1.40;1.30;;;;;;;7.69;89.71;96813.88;5037247;28;20044;-73
2023/12/21 08:59:57;;;;;;;1.60;1.50;;;;;;;7.63;89.54;96820.28;5022714;28;20025;-72
2023/12/21 09:02:24;;;;;;;1.30;1.20;;;;;;;7.73;89.67;96814.94;5010849;28;20386;-72
2023/12/21 09:04:49;;;;;;;1.52;1.30;;;;;;;7.56;89.13;96793.69;5011028;28;20836;-72
2023/12/21 09:07:15;;;;;;;1.40;1.30;;;;;;;7.69;88.79;96805.81;5013765;28;20043;-72
2023/12/21 09:09:41;;;;;;;1.20;1.20;;;;;;;7.82;88.74;96809.94;5040920;28;20025;-72
2023/12/21 09:12:06;;;;;;;1.15;1.05;;;;;;;7.82;87.56;96801.88;5026433;28;20030;-72
2023/12/21 09:14:31;;;;;;;1.13;1.00;;;;;;;7.87;87.97;96810.72;5012484;28;20041;-73
2023/12/21 09:16:58;;;;;;;1.15;1.10;;;;;;;7.87;87.69;96821.47;5032388;28;20041;-73
2023/12/21 09:19:24;;;;;;;1.10;1.10;;;;;;;7.78;87.00;96772.09;5040416;28;20024;-73
2023/12/21 09:21:49;;;;;;;1.67;1.58;;;;;;;7.90;87.07;96798.69;5017899;28;20048;-73
2023/12/21 09:24:15;;;;;;;1.52;1.42;;;;;;;7.92;86.72;96800.03;5026437;28;20028;-72
2023/12/21 09:26:40;;;;;;;1.20;1.10;;;;;;;7.80;86.96;96775.31;5026769;28;20121;-73
2023/12/21 09:29:05;;;;;;;1.95;1.33;;;;;;;7.94;87.54;96784.50;5030453;28;20059;-72
2023/12/21 09:31:31;;;;;;;0.93;0.93;;;;;;;7.90;86.35;96743.22;5024359;28;20037;-73
2023/12/21 09:33:57;;;;;;;1.20;0.93;;;;;;;7.97;86.82;96757.19;5022698;28;20021;-73
2023/12/21 09:36:23;;;;;;;1.60;1.40;;;;;;;7.98;86.95;96748.06;5014855;28;20112;-73
2023/12/21 09:38:48;;;;;;;2.45;1.33;;;;;;;7.93;86.61;96707.84;5002911;28;20025;-73
2023/12/21 09:41:14;;;;;;;1.27;1.23;;;;;;;8.01;86.49;96720.72;5044249;28;20065;-73
2023/12/21 09:43:41;;;;;;;2.30;2.10;;;;;;;8.01;86.76;96712.69;4990343;28;20108;-73
2023/12/21 09:46:08;;;;;;;1.10;1.00;;;;;;;8.01;86.53;96704.66;5018207;28;20115;-73
2023/12/21 09:48:34;;;;;;;3.22;2.50;;;;;;;7.95;86.03;96678.91;5031092;28;20215;-72
2023/12/21 09:51:02;;;;;;;3.65;1.80;;;;;;;8.01;85.88;96683.19;5039910;28;20498;-72
2023/12/21 09:53:28;;;;;;;1.48;1.30;;;;;;;8.00;86.49;96675.44;4995242;28;20029;-73
2023/12/21 09:55:54;;;;;;;1.35;1.10;;;;;;;8.06;85.82;96672.50;5041179;28;20037;-73
2023/12/21 09:58:19;;;;;;;0.77;0.77;;;;;;;8.07;86.34;96655.34;5032490;28;20112;-73
2023/12/21 10:00:45;;;;;;;0.90;0.90;;;;;;;8.11;86.27;96651.06;5035669;28;20123;-73
2023/12/21 10:03:10;;;;;;;1.00;1.00;;;;;;;8.00;86.27;96644.06;5025987;28;20025;-73
2023/12/21 10:05:36;;;;;;;1.77;0.90;;;;;;;8.01;85.75;96623.41;5006422;28;20045;-73
2023/12/21 10:08:02;;;;;;;0.90;0.90;;;;;;;8.12;86.30;96633.88;5013830;28;20549;-73
2023/12/21 10:10:27;;;;;;;0.90;0.90;;;;;;;8.06;85.90;96621.56;5016092;28;20039;-73
2023/12/21 10:12:52;;;;;;;1.70;0.98;;;;;;;8.01;86.49;96600.09;5032046;28;20031;-72
2023/12/21 10:15:19;;;;;;;1.42;1.00;;;;;;;8.10;86.34;96598.50;5025829;28;20034;-73
2023/12/21 10:17:44;;;;;;;1.08;1.08;;;;;;;8.06;86.76;96594.75;5016697;28;20017;-73
2023/12/21 10:20:13;;;;;;;1.08;1.08;;;;;;;7.92;87.85;96550.78;5005613;28;20421;-73
2023/12/21 10:22:43;;;;;;;1.17;1.08;;;;;;;7.98;87.75;96567.69;5047002;28;20392;-73
2023/12/21 10:25:12;;;;;;;1.75;1.20;;;;;;;7.93;88.57;96563.13;5017821;28;20092;-73
2023/12/21 10:27:37;;;;;;;1.40;1.30;;;;;;;7.82;89.05;96550.75;5047764;28;20039;-73
2023/12/21 10:30:03;;;;;;;1.55;1.20;;;;;;;7.98;89.10;96575.72;5008025;28;20060;-73
2023/12/21 10:32:29;;;;;;;1.10;1.00;;;;;;;7.86;89.51;96546.50;4994620;28;20388;-73
2023/12/21 10:34:58;;;;;;;1.20;1.20;;;;;;;7.88;89.33;96540.84;5016181;28;20109;-73
2023/12/21 10:37:24;;;;;;;1.20;1.20;;;;;;;7.80;90.14;96528.78;5024782;28;20032;-73
2023/12/21 10:39:49;;;;;;;1.40;1.30;;;;;;;7.66;90.85;96512.44;5036132;28;20044;-73
2023/12/21 10:42:15;;;;;;;1.55;1.45;;;;;;;7.84;90.27;96505.75;5028561;28;20025;-73
2023/12/21 10:44:44;;;;;;;1.30;1.30;;;;;;;7.77;90.83;96507.88;5015573;28;20136;-73
2023/12/21 10:47:10;;;;;;;1.20;1.20;;;;;;;7.81;91.64;96498.25;5021712;28;20021;-73
2023/12/21 10:49:37;;;;;;;1.30;1.30;;;;;;;7.82;91.53;96497.16;5001145;28;20056;-72
2023/12/21 10:52:03;;;;;;;1.63;1.52;;;;;;;7.77;91.26;96483.75;5021395;28;20032;-73
2023/12/21 10:54:29;;;;;;;1.40;1.40;;;;;;;7.66;91.83;96482.16;5016853;28;20053;-73
2023/12/21 10:56:56;;;;;;;1.30;1.30;;;;;;;7.77;91.64;96489.13;5020177;28;20396;-73
2023/12/21 10:59:22;;;;;;;1.70;1.42;;;;;;;7.88;91.35;96490.75;4999770;28;20096;-73
2023/12/21 11:01:48;;;;;;;1.40;1.40;;;;;;;7.77;90.54;96464.22;5016384;28;20029;-73
2023/12/21 11:04:16;;;;;;;1.38;1.27;;;;;;;7.92;91.08;96470.38;5041329;28;20047;-73
2023/12/21 11:06:43;;;;;;;1.30;1.20;;;;;;;7.96;90.04;96467.97;5015707;28;20080;-75
2023/12/21 11:09:09;;;;;;;1.15;1.15;;;;;;;7.98;89.69;96480.00;5014844;28;20052;-73
2023/12/21 11:11:36;;;;;;;1.50;1.10;;;;;;;7.82;90.25;96475.72;5016460;28;20105;-72
2023/12/21 11:14:01;;;;;;;6.28;1.27;;;;;;;7.91;90.59;96463.38;5013118;28;20026;-73
2023/12/21 11:16:35;;;;;;;1.13;1.13;;;;;;;7.67;90.79;96446.28;5035785;28;20534;-74
2023/12/21 11:19:02;;;;;;;1.45;1.40;;;;;;;7.87;90.90;96448.94;5001859;28;20040;-73
2023/12/21 11:21:29;;;;;;;1.50;1.40;;;;;;;7.80;91.47;96434.19;5010554;28;20079;-74
2023/12/21 11:23:54;;;;;;;1.30;1.30;;;;;;;7.86;91.70;96433.94;5035121;28;20120;-74
2023/12/21 11:26:21;;;;;;;1.30;1.30;;;;;;;7.89;91.63;96433.38;5031965;28;20125;-74
2023/12/21 11:28:47;;;;;;;1.65;1.55;;;;;;;7.83;92.03;96428.31;5020479;28;20087;-75
2023/12/21 11:31:16;;;;;;;1.70;1.60;;;;;;;7.86;91.95;96438.50;5027853;28;20025;-73
2023/12/21 11:33:42;;;;;;;1.58;1.48;;;;;;;7.85;92.22;96424.28;5037530;28;20088;-74